EIME

Casement Air Base Airport

Baldonnel, Ireland
METAR EIME 192000Z 21017KT 9999 BKN032 20/15 Q1014
Observed Flight Rules
Jun-19 @ 20:00 UTC (20 minutes ago) Visual Flight Rules
Wind Visibility Clouds
210° at 17 knots 10,000+ meters
  • Broken at 3,200' AGL
Temperatures Readings
Current 20°C / 68°F
Dewpoint 15°C / 59°F
Humidity 73%
Altimeter 29.94" Hg
Pressure 1014 hPa
Elevation 93
METAR EIME 192000Z 21017KT 9999 BKN032 20/15 Q1014
Observed Flight Rules
Jun-19 @ 20:00 UTC
(20 minutes ago)
VFR
Wind Visibility
210° at 17 knots 10,000+ meters
Clouds
  • Broken at 3,200' AGL
Temperature Dewpoint
20°C / 68°F 15°C / 59°F
Humidity Altimeter Pressure
73% 29.94" Hg 1014 hPa